sensor_id;sensor_type;location;lat;lon;timestamp;pressure;altitude;pressure_sealevel;temperature
24639;BMP180;1641;51.306;12.384;2023-04-01T00:01:00;98319.00;;;12.60
24639;BMP180;1641;51.306;12.384;2023-04-01T00:03:26;98326.00;;;12.60
24639;BMP180;1641;51.306;12.384;2023-04-01T00:05:52;98309.00;;;12.60
24639;BMP180;1641;51.306;12.384;2023-04-01T00:08:17;98328.00;;;12.60
24639;BMP180;1641;51.306;12.384;2023-04-01T00:10:43;98329.00;;;12.60
24639;BMP180;1641;51.306;12.384;2023-04-01T00:13:08;98281.00;;;12.50
24639;BMP180;1641;51.306;12.384;2023-04-01T00:15:34;98330.00;;;12.60
24639;BMP180;1641;51.306;12.384;2023-04-01T00:17:59;98312.00;;;12.70
24639;BMP180;1641;51.306;12.384;2023-04-01T00:20:26;98327.00;;;12.80
24639;BMP180;1641;51.306;12.384;2023-04-01T00:22:51;98322.00;;;12.90
24639;BMP180;1641;51.306;12.384;2023-04-01T00:25:17;98321.00;;;12.60
24639;BMP180;1641;51.306;12.384;2023-04-01T00:27:42;98320.00;;;12.50
24639;BMP180;1641;51.306;12.384;2023-04-01T00:30:08;98325.00;;;12.60
24639;BMP180;1641;51.306;12.384;2023-04-01T00:32:34;98321.00;;;12.70
24639;BMP180;1641;51.306;12.384;2023-04-01T00:34:59;98318.00;;;12.60
24639;BMP180;1641;51.306;12.384;2023-04-01T00:37:26;98323.00;;;12.70
24639;BMP180;1641;51.306;12.384;2023-04-01T00:39:51;98320.00;;;12.90
24639;BMP180;1641;51.306;12.384;2023-04-01T00:42:16;98298.00;;;12.70
24639;BMP180;1641;51.306;12.384;2023-04-01T00:44:47;98322.00;;;12.60
24639;BMP180;1641;51.306;12.384;2023-04-01T00:47:13;98315.00;;;12.70
24639;BMP180;1641;51.306;12.384;2023-04-01T00:49:42;98319.00;;;12.70
24639;BMP180;1641;51.306;12.384;2023-04-01T00:52:11;98314.00;;;12.90
24639;BMP180;1641;51.306;12.384;2023-04-01T00:54:38;98316.00;;;12.70
24639;BMP180;1641;51.306;12.384;2023-04-01T00:57:14;98307.00;;;12.60
24639;BMP180;1641;51.306;12.384;2023-04-01T00:59:43;98318.00;;;12.80
24639;BMP180;1641;51.306;12.384;2023-04-01T01:02:12;98317.00;;;12.80
24639;BMP180;1641;51.306;12.384;2023-04-01T01:04:38;98316.00;;;12.80
24639;BMP180;1641;51.306;12.384;2023-04-01T01:07:11;98311.00;;;12.80
24639;BMP180;1641;51.306;12.384;2023-04-01T01:09:56;98322.00;;;12.90
24639;BMP180;1641;51.306;12.384;2023-04-01T01:12:31;98320.00;;;12.70
24639;BMP180;1641;51.306;12.384;2023-04-01T01:18:05;98312.00;;;12.70
24639;BMP180;1641;51.306;12.384;2023-04-01T01:21:04;98318.00;;;12.80
24639;BMP180;1641;51.306;12.384;2023-04-01T01:32:11;98309.00;;;12.70
24639;BMP180;1641;51.306;12.384;2023-04-01T01:37:27;98311.00;;;12.70
24639;BMP180;1641;51.306;12.384;2023-04-01T01:40:00;98315.00;;;12.80
24639;BMP180;1641;51.306;12.384;2023-04-01T01:42:28;98310.00;;;12.90
24639;BMP180;1641;51.306;12.384;2023-04-01T01:44:56;98299.00;;;12.80
24639;BMP180;1641;51.306;12.384;2023-04-01T01:47:25;98307.00;;;12.50
24639;BMP180;1641;51.306;12.384;2023-04-01T01:49:51;98293.00;;;12.60
24639;BMP180;1641;51.306;12.384;2023-04-01T01:52:17;98313.00;;;12.60
24639;BMP180;1641;51.306;12.384;2023-04-01T01:54:54;98320.00;;;12.60
24639;BMP180;1641;51.306;12.384;2023-04-01T01:57:23;98300.00;;;12.60
24639;BMP180;1641;51.306;12.384;2023-04-01T01:59:52;98313.00;;;12.70
24639;BMP180;1641;51.306;12.384;2023-04-01T02:02:19;98315.00;;;12.60
24639;BMP180;1641;51.306;12.384;2023-04-01T02:04:46;98309.00;;;12.50
24639;BMP180;1641;51.306;12.384;2023-04-01T02:07:18;98317.00;;;12.60
24639;BMP180;1641;51.306;12.384;2023-04-01T02:09:44;98312.00;;;12.50
24639;BMP180;1641;51.306;12.384;2023-04-01T02:12:12;98320.00;;;12.50
24639;BMP180;1641;51.306;12.384;2023-04-01T02:14:43;98318.00;;;12.50
24639;BMP180;1641;51.306;12.384;2023-04-01T02:17:14;98317.00;;;12.40
24639;BMP180;1641;51.306;12.384;2023-04-01T02:20:22;98295.00;;;12.50
24639;BMP180;1641;51.306;12.384;2023-04-01T02:22:50;98332.00;;;12.50
24639;BMP180;1641;51.306;12.384;2023-04-01T02:25:23;98327.00;;;12.50
24639;BMP180;1641;51.306;12.384;2023-04-01T02:27:50;98319.00;;;12.60
24639;BMP180;1641;51.306;12.384;2023-04-01T02:30:18;98314.00;;;12.80
24639;BMP180;1641;51.306;12.384;2023-04-01T02:32:44;98316.00;;;12.80
24639;BMP180;1641;51.306;12.384;2023-04-01T02:35:11;98309.00;;;12.70
24639;BMP180;1641;51.306;12.384;2023-04-01T02:37:38;98300.00;;;12.60
24639;BMP180;1641;51.306;12.384;2023-04-01T02:40:14;98324.00;;;12.60
24639;BMP180;1641;51.306;12.384;2023-04-01T02:42:40;98329.00;;;12.60
24639;BMP180;1641;51.306;12.384;2023-04-01T02:45:06;98318.00;;;12.60
24639;BMP180;1641;51.306;12.384;2023-04-01T02:47:32;98319.00;;;12.50
24639;BMP180;1641;51.306;12.384;2023-04-01T02:49:57;98324.00;;;12.50
24639;BMP180;1641;51.306;12.384;2023-04-01T02:52:24;98310.00;;;12.60
24639;BMP180;1641;51.306;12.384;2023-04-01T02:54:49;98325.00;;;12.70
24639;BMP180;1641;51.306;12.384;2023-04-01T02:57:15;98331.00;;;12.70
24639;BMP180;1641;51.306;12.384;2023-04-01T02:59:40;98337.00;;;12.60
24639;BMP180;1641;51.306;12.384;2023-04-01T03:02:05;98310.00;;;12.80
24639;BMP180;1641;51.306;12.384;2023-04-01T03:04:32;98306.00;;;12.60
24639;BMP180;1641;51.306;12.384;2023-04-01T03:06:57;98324.00;;;12.50
24639;BMP180;1641;51.306;12.384;2023-04-01T03:09:22;98330.00;;;12.70
24639;BMP180;1641;51.306;12.384;2023-04-01T03:11:48;98318.00;;;12.70
24639;BMP180;1641;51.306;12.384;2023-04-01T03:14:13;98326.00;;;12.50
24639;BMP180;1641;51.306;12.384;2023-04-01T03:16:38;98324.00;;;12.50
24639;BMP180;1641;51.306;12.384;2023-04-01T03:19:03;98334.00;;;12.60
24639;BMP180;1641;51.306;12.384;2023-04-01T03:21:28;98329.00;;;12.60
24639;BMP180;1641;51.306;12.384;2023-04-01T03:23:54;98330.00;;;12.70
24639;BMP180;1641;51.306;12.384;2023-04-01T03:26:19;98331.00;;;12.70
24639;BMP180;1641;51.306;12.384;2023-04-01T03:28:47;98320.00;;;12.70
24639;BMP180;1641;51.306;12.384;2023-04-01T03:31:12;98333.00;;;12.70
24639;BMP180;1641;51.306;12.384;2023-04-01T03:33:38;98319.00;;;12.70
24639;BMP180;1641;51.306;12.384;2023-04-01T03:36:03;98327.00;;;12.80
24639;BMP180;1641;51.306;12.384;2023-04-01T03:38:32;98337.00;;;12.80
24639;BMP180;1641;51.306;12.384;2023-04-01T03:40:58;98333.00;;;12.90
24639;BMP180;1641;51.306;12.384;2023-04-01T03:43:23;98334.00;;;12.70
24639;BMP180;1641;51.306;12.384;2023-04-01T03:45:49;98331.00;;;12.70
24639;BMP180;1641;51.306;12.384;2023-04-01T03:48:15;98335.00;;;12.80
24639;BMP180;1641;51.306;12.384;2023-04-01T03:50:41;98341.00;;;12.80
24639;BMP180;1641;51.306;12.384;2023-04-01T03:53:07;98346.00;;;12.70
24639;BMP180;1641;51.306;12.384;2023-04-01T03:55:33;98345.00;;;12.80
24639;BMP180;1641;51.306;12.384;2023-04-01T03:57:59;98359.00;;;12.80
24639;BMP180;1641;51.306;12.384;2023-04-01T04:00:24;98342.00;;;12.60
24639;BMP180;1641;51.306;12.384;2023-04-01T04:02:50;98360.00;;;12.80
24639;BMP180;1641;51.306;12.384;2023-04-01T04:05:15;98351.00;;;12.70
24639;BMP180;1641;51.306;12.384;2023-04-01T04:07:40;98352.00;;;12.70
24639;BMP180;1641;51.306;12.384;2023-04-01T04:10:06;98343.00;;;12.70
24639;BMP180;1641;51.306;12.384;2023-04-01T04:12:32;98347.00;;;12.70
24639;BMP180;1641;51.306;12.384;2023-04-01T04:14:57;98355.00;;;12.70
24639;BMP180;1641;51.306;12.384;2023-04-01T04:17:22;98351.00;;;12.80
24639;BMP180;1641;51.306;12.384;2023-04-01T04:19:47;98342.00;;;12.70
24639;BMP180;1641;51.306;12.384;2023-04-01T04:22:13;98356.00;;;12.70
24639;BMP180;1641;51.306;12.384;2023-04-01T04:24:38;98347.00;;;12.60
24639;BMP180;1641;51.306;12.384;2023-04-01T04:27:03;98354.00;;;12.50
24639;BMP180;1641;51.306;12.384;2023-04-01T04:29:29;98366.00;;;12.60
24639;BMP180;1641;51.306;12.384;2023-04-01T04:31:54;98356.00;;;12.70
24639;BMP180;1641;51.306;12.384;2023-04-01T04:34:20;98353.00;;;12.70
24639;BMP180;1641;51.306;12.384;2023-04-01T04:36:46;98372.00;;;12.70
24639;BMP180;1641;51.306;12.384;2023-04-01T04:39:12;98373.00;;;12.60
24639;BMP180;1641;51.306;12.384;2023-04-01T04:41:37;98372.00;;;12.50
24639;BMP180;1641;51.306;12.384;2023-04-01T04:44:03;98352.00;;;12.30
24639;BMP180;1641;51.306;12.384;2023-04-01T04:46:29;98378.00;;;12.50
24639;BMP180;1641;51.306;12.384;2023-04-01T04:48:54;98363.00;;;12.50
24639;BMP180;1641;51.306;12.384;2023-04-01T04:51:20;98383.00;;;12.40
24639;BMP180;1641;51.306;12.384;2023-04-01T04:53:45;98386.00;;;12.40
24639;BMP180;1641;51.306;12.384;2023-04-01T04:56:11;98375.00;;;12.40
24639;BMP180;1641;51.306;12.384;2023-04-01T04:58:37;98380.00;;;12.40
24639;BMP180;1641;51.306;12.384;2023-04-01T05:01:10;98369.00;;;12.40
24639;BMP180;1641;51.306;12.384;2023-04-01T05:03:37;98385.00;;;12.40
24639;BMP180;1641;51.306;12.384;2023-04-01T05:06:02;98382.00;;;12.30
24639;BMP180;1641;51.306;12.384;2023-04-01T05:08:28;98382.00;;;12.50
24639;BMP180;1641;51.306;12.384;2023-04-01T05:10:53;98371.00;;;12.50
24639;BMP180;1641;51.306;12.384;2023-04-01T05:13:18;98375.00;;;12.40
24639;BMP180;1641;51.306;12.384;2023-04-01T05:15:44;98391.00;;;12.60
24639;BMP180;1641;51.306;12.384;2023-04-01T05:18:09;98389.00;;;12.40
24639;BMP180;1641;51.306;12.384;2023-04-01T05:20:34;98398.00;;;12.40
24639;BMP180;1641;51.306;12.384;2023-04-01T05:23:00;98390.00;;;12.50
24639;BMP180;1641;51.306;12.384;2023-04-01T05:25:25;98361.00;;;12.60
24639;BMP180;1641;51.306;12.384;2023-04-01T05:27:51;98395.00;;;12.60
24639;BMP180;1641;51.306;12.384;2023-04-01T05:30:16;98396.00;;;12.60
24639;BMP180;1641;51.306;12.384;2023-04-01T05:32:41;98404.00;;;12.90
24639;BMP180;1641;51.306;12.384;2023-04-01T05:35:08;98373.00;;;12.70
24639;BMP180;1641;51.306;12.384;2023-04-01T05:37:34;98389.00;;;12.70
24639;BMP180;1641;51.306;12.384;2023-04-01T05:40:00;98382.00;;;12.80
24639;BMP180;1641;51.306;12.384;2023-04-01T05:42:25;98386.00;;;12.80
24639;BMP180;1641;51.306;12.384;2023-04-01T05:44:50;98380.00;;;12.80
24639;BMP180;1641;51.306;12.384;2023-04-01T05:47:16;98338.00;;;12.80
24639;BMP180;1641;51.306;12.384;2023-04-01T05:49:41;98402.00;;;12.90
24639;BMP180;1641;51.306;12.384;2023-04-01T05:52:06;98406.00;;;12.70
24639;BMP180;1641;51.306;12.384;2023-04-01T05:54:32;98405.00;;;12.60
24639;BMP180;1641;51.306;12.384;2023-04-01T05:56:58;98387.00;;;12.70
24639;BMP180;1641;51.306;12.384;2023-04-01T05:59:23;98404.00;;;12.80
24639;BMP180;1641;51.306;12.384;2023-04-01T06:01:49;98376.00;;;12.70
24639;BMP180;1641;51.306;12.384;2023-04-01T06:04:16;98419.00;;;12.90
24639;BMP180;1641;51.306;12.384;2023-04-01T06:06:42;98387.00;;;13.00
24639;BMP180;1641;51.306;12.384;2023-04-01T06:09:15;98409.00;;;12.90
24639;BMP180;1641;51.306;12.384;2023-04-01T06:12:12;98388.00;;;12.80
24639;BMP180;1641;51.306;12.384;2023-04-01T06:14:57;98411.00;;;13.00
24639;BMP180;1641;51.306;12.384;2023-04-01T06:17:38;98416.00;;;12.90
24639;BMP180;1641;51.306;12.384;2023-04-01T06:28:41;98423.00;;;13.00
24639;BMP180;1641;51.306;12.384;2023-04-01T06:31:38;98430.00;;;13.30
24639;BMP180;1641;51.306;12.384;2023-04-01T06:37:23;98415.00;;;13.10
24639;BMP180;1641;51.306;12.384;2023-04-01T06:40:17;98435.00;;;13.30
24639;BMP180;1641;51.306;12.384;2023-04-01T06:48:33;98433.00;;;13.70
24639;BMP180;1641;51.306;12.384;2023-04-01T06:54:04;98432.00;;;14.10
24639;BMP180;1641;51.306;12.384;2023-04-01T06:56:32;98440.00;;;14.30
24639;BMP180;1641;51.306;12.384;2023-04-01T06:59:01;98434.00;;;14.40
24639;BMP180;1641;51.306;12.384;2023-04-01T07:01:35;98419.00;;;14.40
24639;BMP180;1641;51.306;12.384;2023-04-01T07:04:26;98388.00;;;14.60
24639;BMP180;1641;51.306;12.384;2023-04-01T07:06:58;98434.00;;;14.50
24639;BMP180;1641;51.306;12.384;2023-04-01T07:09:25;98432.00;;;14.70
24639;BMP180;1641;51.306;12.384;2023-04-01T07:11:53;98436.00;;;14.50
24639;BMP180;1641;51.306;12.384;2023-04-01T07:14:23;98442.00;;;14.80
24639;BMP180;1641;51.306;12.384;2023-04-01T07:17:03;98431.00;;;14.60
24639;BMP180;1641;51.306;12.384;2023-04-01T07:19:39;98444.00;;;14.50
24639;BMP180;1641;51.306;12.384;2023-04-01T07:22:29;98414.00;;;14.50
24639;BMP180;1641;51.306;12.384;2023-04-01T07:24:57;98425.00;;;14.30
24639;BMP180;1641;51.306;12.384;2023-04-01T07:27:26;98452.00;;;14.50
24639;BMP180;1641;51.306;12.384;2023-04-01T07:29:51;98454.00;;;14.50
24639;BMP180;1641;51.306;12.384;2023-04-01T07:35:33;98455.00;;;14.60
24639;BMP180;1641;51.306;12.384;2023-04-01T07:38:42;98449.00;;;14.50
24639;BMP180;1641;51.306;12.384;2023-04-01T07:44:02;98434.00;;;14.40
24639;BMP180;1641;51.306;12.384;2023-04-01T07:49:15;98471.00;;;14.20
24639;BMP180;1641;51.306;12.384;2023-04-01T07:54:16;98465.00;;;14.90
24639;BMP180;1641;51.306;12.384;2023-04-01T07:56:51;98464.00;;;14.80
24639;BMP180;1641;51.306;12.384;2023-04-01T08:02:27;98455.00;;;15.00
24639;BMP180;1641;51.306;12.384;2023-04-01T08:05:19;98470.00;;;14.70
24639;BMP180;1641;51.306;12.384;2023-04-01T08:16:41;98488.00;;;14.70
24639;BMP180;1641;51.306;12.384;2023-04-01T08:22:27;98472.00;;;14.20
24639;BMP180;1641;51.306;12.384;2023-04-01T08:24:55;98493.00;;;14.40
24639;BMP180;1641;51.306;12.384;2023-04-01T08:27:35;98496.00;;;14.90
24639;BMP180;1641;51.306;12.384;2023-04-01T08:30:24;98490.00;;;15.10
24639;BMP180;1641;51.306;12.384;2023-04-01T08:33:00;98489.00;;;15.30
24639;BMP180;1641;51.306;12.384;2023-04-01T08:35:32;98495.00;;;15.50
24639;BMP180;1641;51.306;12.384;2023-04-01T08:38:11;98503.00;;;15.70
24639;BMP180;1641;51.306;12.384;2023-04-01T08:40:58;98498.00;;;15.30
24639;BMP180;1641;51.306;12.384;2023-04-01T08:43:42;98498.00;;;14.90
24639;BMP180;1641;51.306;12.384;2023-04-01T08:52:31;98478.00;;;14.80
24639;BMP180;1641;51.306;12.384;2023-04-01T08:55:14;98507.00;;;15.30
24639;BMP180;1641;51.306;12.384;2023-04-01T09:00:38;98477.00;;;15.60
24639;BMP180;1641;51.306;12.384;2023-04-01T09:06:11;98491.00;;;16.30
24639;BMP180;1641;51.306;12.384;2023-04-01T09:08:59;98504.00;;;16.60
24639;BMP180;1641;51.306;12.384;2023-04-01T09:19:56;98505.00;;;16.30
24639;BMP180;1641;51.306;12.384;2023-04-01T09:28:08;98510.00;;;16.20
24639;BMP180;1641;51.306;12.384;2023-04-01T09:33:46;98513.00;;;15.40
24639;BMP180;1641;51.306;12.384;2023-04-01T09:36:38;98518.00;;;15.90
24639;BMP180;1641;51.306;12.384;2023-04-01T09:39:24;98514.00;;;15.60
24639;BMP180;1641;51.306;12.384;2023-04-01T09:42:14;98495.00;;;15.90
24639;BMP180;1641;51.306;12.384;2023-04-01T09:45:01;98491.00;;;15.60
24639;BMP180;1641;51.306;12.384;2023-04-01T09:53:11;98510.00;;;16.50
24639;BMP180;1641;51.306;12.384;2023-04-01T09:58:47;98485.00;;;16.80
24639;BMP180;1641;51.306;12.384;2023-04-01T10:01:29;98518.00;;;16.50
24639;BMP180;1641;51.306;12.384;2023-04-01T10:04:17;98521.00;;;16.60
24639;BMP180;1641;51.306;12.384;2023-04-01T10:07:26;98516.00;;;16.40
24639;BMP180;1641;51.306;12.384;2023-04-01T10:13:16;98493.00;;;16.00
24639;BMP180;1641;51.306;12.384;2023-04-01T10:19:05;98513.00;;;16.00
24639;BMP180;1641;51.306;12.384;2023-04-01T10:21:56;98522.00;;;15.90
24639;BMP180;1641;51.306;12.384;2023-04-01T10:24:52;98516.00;;;16.10
24639;BMP180;1641;51.306;12.384;2023-04-01T10:32:51;98517.00;;;16.70
24639;BMP180;1641;51.306;12.384;2023-04-01T10:36:05;98513.00;;;16.40
24639;BMP180;1641;51.306;12.384;2023-04-01T10:41:41;98525.00;;;15.80
24639;BMP180;1641;51.306;12.384;2023-04-01T10:53:45;98499.00;;;15.60
24639;BMP180;1641;51.306;12.384;2023-04-01T10:56:49;98513.00;;;15.60
24639;BMP180;1641;51.306;12.384;2023-04-01T11:25:23;98515.00;;;17.10
24639;BMP180;1641;51.306;12.384;2023-04-01T11:28:35;98520.00;;;17.20
24639;BMP180;1641;51.306;12.384;2023-04-01T11:37:07;98535.00;;;16.80
24639;BMP180;1641;51.306;12.384;2023-04-01T11:45:36;98546.00;;;15.20
24639;BMP180;1641;51.306;12.384;2023-04-01T11:51:18;98549.00;;;15.60
24639;BMP180;1641;51.306;12.384;2023-04-01T11:57:05;98558.00;;;16.10
24639;BMP180;1641;51.306;12.384;2023-04-01T11:59:59;98553.00;;;15.70
24639;BMP180;1641;51.306;12.384;2023-04-01T12:02:38;98555.00;;;15.70
24639;BMP180;1641;51.306;12.384;2023-04-01T12:05:47;98552.00;;;15.70
24639;BMP180;1641;51.306;12.384;2023-04-01T12:11:16;98557.00;;;15.50
24639;BMP180;1641;51.306;12.384;2023-04-01T12:16:46;98567.00;;;15.50
24639;BMP180;1641;51.306;12.384;2023-04-01T12:22:20;98575.00;;;15.60
24639;BMP180;1641;51.306;12.384;2023-04-01T12:41:53;98582.00;;;14.80
24639;BMP180;1641;51.306;12.384;2023-04-01T12:50:56;98587.00;;;15.60
24639;BMP180;1641;51.306;12.384;2023-04-01T12:53:54;98585.00;;;15.00
24639;BMP180;1641;51.306;12.384;2023-04-01T13:13:45;98600.00;;;14.80
24639;BMP180;1641;51.306;12.384;2023-04-01T13:16:36;98605.00;;;15.30
24639;BMP180;1641;51.306;12.384;2023-04-01T13:19:09;98592.00;;;14.90
24639;BMP180;1641;51.306;12.384;2023-04-01T13:21:50;98601.00;;;14.90
24639;BMP180;1641;51.306;12.384;2023-04-01T13:24:45;98606.00;;;15.20
24639;BMP180;1641;51.306;12.384;2023-04-01T13:27:34;98593.00;;;15.30
24639;BMP180;1641;51.306;12.384;2023-04-01T13:30:28;98613.00;;;15.60
24639;BMP180;1641;51.306;12.384;2023-04-01T13:38:08;98607.00;;;15.80
24639;BMP180;1641;51.306;12.384;2023-04-01T13:40:42;98612.00;;;15.70
24639;BMP180;1641;51.306;12.384;2023-04-01T13:43:30;98613.00;;;15.80
24639;BMP180;1641;51.306;12.384;2023-04-01T13:46:08;98604.00;;;15.90
24639;BMP180;1641;51.306;12.384;2023-04-01T13:49:02;98619.00;;;15.00
24639;BMP180;1641;51.306;12.384;2023-04-01T13:54:57;98618.00;;;15.10
24639;BMP180;1641;51.306;12.384;2023-04-01T14:00:48;98624.00;;;14.80
24639;BMP180;1641;51.306;12.384;2023-04-01T14:03:27;98613.00;;;15.30
24639;BMP180;1641;51.306;12.384;2023-04-01T14:06:06;98612.00;;;15.40
24639;BMP180;1641;51.306;12.384;2023-04-01T14:08:47;98628.00;;;15.50
24639;BMP180;1641;51.306;12.384;2023-04-01T14:11:45;98625.00;;;15.70
24639;BMP180;1641;51.306;12.384;2023-04-01T14:14:54;98624.00;;;16.00
24639;BMP180;1641;51.306;12.384;2023-04-01T14:20:26;98627.00;;;15.80
24639;BMP180;1641;51.306;12.384;2023-04-01T14:28:58;98629.00;;;15.10
24639;BMP180;1641;51.306;12.384;2023-04-01T14:31:37;98634.00;;;15.50
24639;BMP180;1641;51.306;12.384;2023-04-01T14:34:25;98637.00;;;16.00
24639;BMP180;1641;51.306;12.384;2023-04-01T14:40:14;98635.00;;;16.10
24639;BMP180;1641;51.306;12.384;2023-04-01T14:42:55;98611.00;;;15.70
24639;BMP180;1641;51.306;12.384;2023-04-01T14:45:46;98643.00;;;15.80
24639;BMP180;1641;51.306;12.384;2023-04-01T14:48:35;98645.00;;;15.50
24639;BMP180;1641;51.306;12.384;2023-04-01T14:51:14;98639.00;;;15.40
24639;BMP180;1641;51.306;12.384;2023-04-01T14:56:46;98648.00;;;15.80
24639;BMP180;1641;51.306;12.384;2023-04-01T15:02:14;98659.00;;;15.90
24639;BMP180;1641;51.306;12.384;2023-04-01T15:04:46;98657.00;;;16.00
24639;BMP180;1641;51.306;12.384;2023-04-01T15:07:30;98657.00;;;15.70
24639;BMP180;1641;51.306;12.384;2023-04-01T15:10:12;98666.00;;;15.10
24639;BMP180;1641;51.306;12.384;2023-04-01T15:13:12;98664.00;;;14.80
24639;BMP180;1641;51.306;12.384;2023-04-01T15:18:19;98665.00;;;15.20
24639;BMP180;1641;51.306;12.384;2023-04-01T15:21:16;98659.00;;;15.10
24639;BMP180;1641;51.306;12.384;2023-04-01T15:23:50;98669.00;;;15.00
24639;BMP180;1641;51.306;12.384;2023-04-01T15:32:19;98650.00;;;15.10
24639;BMP180;1641;51.306;12.384;2023-04-01T15:34:57;98668.00;;;14.90
24639;BMP180;1641;51.306;12.384;2023-04-01T15:37:50;98671.00;;;15.00
24639;BMP180;1641;51.306;12.384;2023-04-01T15:40:42;98674.00;;;15.30
24639;BMP180;1641;51.306;12.384;2023-04-01T15:43:31;98673.00;;;15.20
24639;BMP180;1641;51.306;12.384;2023-04-01T15:46:36;98675.00;;;14.80
24639;BMP180;1641;51.306;12.384;2023-04-01T15:52:22;98683.00;;;14.90
24639;BMP180;1641;51.306;12.384;2023-04-01T15:57:44;98646.00;;;13.60
24639;BMP180;1641;51.306;12.384;2023-04-01T16:00:19;98692.00;;;13.90
24639;BMP180;1641;51.306;12.384;2023-04-01T16:08:38;98700.00;;;13.20
24639;BMP180;1641;51.306;12.384;2023-04-01T16:16:38;98695.00;;;13.40
24639;BMP180;1641;51.306;12.384;2023-04-01T16:24:46;98713.00;;;13.30
24639;BMP180;1641;51.306;12.384;2023-04-01T16:27:33;98704.00;;;13.30
24639;BMP180;1641;51.306;12.384;2023-04-01T16:30:37;98718.00;;;13.20
24639;BMP180;1641;51.306;12.384;2023-04-01T16:33:04;98714.00;;;12.40
24639;BMP180;1641;51.306;12.384;2023-04-01T16:38:33;98725.00;;;12.90
24639;BMP180;1641;51.306;12.384;2023-04-01T16:41:17;98728.00;;;13.60
24639;BMP180;1641;51.306;12.384;2023-04-01T16:43:49;98747.00;;;13.40
24639;BMP180;1641;51.306;12.384;2023-04-01T16:46:28;98757.00;;;13.60
24639;BMP180;1641;51.306;12.384;2023-04-01T16:51:53;98751.00;;;13.60
24639;BMP180;1641;51.306;12.384;2023-04-01T16:54:28;98746.00;;;13.90
24639;BMP180;1641;51.306;12.384;2023-04-01T16:57:15;98760.00;;;14.20
24639;BMP180;1641;51.306;12.384;2023-04-01T17:02:49;98759.00;;;14.00
24639;BMP180;1641;51.306;12.384;2023-04-01T17:05:18;98742.00;;;14.00
24639;BMP180;1641;51.306;12.384;2023-04-01T17:07:46;98765.00;;;13.50
24639;BMP180;1641;51.306;12.384;2023-04-01T17:24:18;98787.00;;;13.40
24639;BMP180;1641;51.306;12.384;2023-04-01T17:26:54;98787.00;;;13.60
24639;BMP180;1641;51.306;12.384;2023-04-01T17:32:45;98804.00;;;13.60
24639;BMP180;1641;51.306;12.384;2023-04-01T17:35:19;98810.00;;;13.40
24639;BMP180;1641;51.306;12.384;2023-04-01T17:38:15;98807.00;;;13.60
24639;BMP180;1641;51.306;12.384;2023-04-01T17:47:06;98819.00;;;13.60
24639;BMP180;1641;51.306;12.384;2023-04-01T17:54:51;98825.00;;;13.50
24639;BMP180;1641;51.306;12.384;2023-04-01T17:57:46;98816.00;;;13.40
24639;BMP180;1641;51.306;12.384;2023-04-01T18:03:44;98849.00;;;13.10
24639;BMP180;1641;51.306;12.384;2023-04-01T18:06:11;98849.00;;;13.00
24639;BMP180;1641;51.306;12.384;2023-04-01T18:08:58;98848.00;;;12.80
24639;BMP180;1641;51.306;12.384;2023-04-01T18:11:34;98847.00;;;13.10
24639;BMP180;1641;51.306;12.384;2023-04-01T18:14:29;98856.00;;;13.00
24639;BMP180;1641;51.306;12.384;2023-04-01T18:17:38;98843.00;;;13.10
24639;BMP180;1641;51.306;12.384;2023-04-01T18:23:43;98854.00;;;12.90
24639;BMP180;1641;51.306;12.384;2023-04-01T18:26:26;98874.00;;;12.50
24639;BMP180;1641;51.306;12.384;2023-04-01T18:28:59;98803.00;;;12.40
24639;BMP180;1641;51.306;12.384;2023-04-01T18:31:41;98876.00;;;12.00
24639;BMP180;1641;51.306;12.384;2023-04-01T18:36:44;98887.00;;;11.90
24639;BMP180;1641;51.306;12.384;2023-04-01T18:39:40;98895.00;;;12.20
24639;BMP180;1641;51.306;12.384;2023-04-01T18:42:33;98888.00;;;12.10
24639;BMP180;1641;51.306;12.384;2023-04-01T18:45:26;98897.00;;;12.20
24639;BMP180;1641;51.306;12.384;2023-04-01T18:51:02;98907.00;;;12.10
24639;BMP180;1641;51.306;12.384;2023-04-01T18:53:44;98908.00;;;12.20
24639;BMP180;1641;51.306;12.384;2023-04-01T18:56:32;98908.00;;;12.10
24639;BMP180;1641;51.306;12.384;2023-04-01T18:59:09;98882.00;;;11.90
24639;BMP180;1641;51.306;12.384;2023-04-01T19:04:26;98930.00;;;11.90
24639;BMP180;1641;51.306;12.384;2023-04-01T19:06:55;98931.00;;;11.80
24639;BMP180;1641;51.306;12.384;2023-04-01T19:09:26;98928.00;;;11.60
24639;BMP180;1641;51.306;12.384;2023-04-01T19:20:53;98957.00;;;11.40
24639;BMP180;1641;51.306;12.384;2023-04-01T19:23:42;98948.00;;;11.50
24639;BMP180;1641;51.306;12.384;2023-04-01T19:26:19;98949.00;;;11.30
24639;BMP180;1641;51.306;12.384;2023-04-01T19:28:53;98959.00;;;11.10
24639;BMP180;1641;51.306;12.384;2023-04-01T19:31:39;98962.00;;;10.70
24639;BMP180;1641;51.306;12.384;2023-04-01T19:34:26;98965.00;;;10.70
24639;BMP180;1641;51.306;12.384;2023-04-01T19:42:19;98983.00;;;10.70
24639;BMP180;1641;51.306;12.384;2023-04-01T19:52:54;98991.00;;;10.60
24639;BMP180;1641;51.306;12.384;2023-04-01T20:00:50;98968.00;;;10.20
24639;BMP180;1641;51.306;12.384;2023-04-01T20:03:51;98994.00;;;10.30
24639;BMP180;1641;51.306;12.384;2023-04-01T20:06:29;99014.00;;;10.50
24639;BMP180;1641;51.306;12.384;2023-04-01T20:14:54;99022.00;;;10.10
24639;BMP180;1641;51.306;12.384;2023-04-01T20:25:23;99035.00;;;9.60
24639;BMP180;1641;51.306;12.384;2023-04-01T20:28:12;99052.00;;;9.50
24639;BMP180;1641;51.306;12.384;2023-04-01T20:33:37;99062.00;;;10.00
24639;BMP180;1641;51.306;12.384;2023-04-01T20:36:21;99050.00;;;9.70
24639;BMP180;1641;51.306;12.384;2023-04-01T20:39:08;99073.00;;;9.40
24639;BMP180;1641;51.306;12.384;2023-04-01T20:44:35;99072.00;;;9.30
24639;BMP180;1641;51.306;12.384;2023-04-01T20:47:17;99087.00;;;9.20
24639;BMP180;1641;51.306;12.384;2023-04-01T20:52:37;99082.00;;;9.40
24639;BMP180;1641;51.306;12.384;2023-04-01T20:55:23;99082.00;;;9.60
24639;BMP180;1641;51.306;12.384;2023-04-01T20:58:00;99083.00;;;9.60
24639;BMP180;1641;51.306;12.384;2023-04-01T21:05:42;99086.00;;;9.40
24639;BMP180;1641;51.306;12.384;2023-04-01T21:13:52;99099.00;;;9.00
24639;BMP180;1641;51.306;12.384;2023-04-01T21:19:42;99130.00;;;9.20
24639;BMP180;1641;51.306;12.384;2023-04-01T21:22:46;99125.00;;;9.10
24639;BMP180;1641;51.306;12.384;2023-04-01T21:30:48;99133.00;;;8.60
24639;BMP180;1641;51.306;12.384;2023-04-01T21:36:08;99160.00;;;8.40